createdAt,value
2018-05-03T00:00:36.220Z,6.53
2018-05-03T00:03:03.618Z,6.50
2018-05-03T00:05:30.996Z,7.60
2018-05-03T00:07:58.388Z,7.53
2018-05-03T00:10:26.088Z,7.93
2018-05-03T00:12:54.182Z,6.50
2018-05-03T00:15:21.879Z,7.25
2018-05-03T00:17:49.263Z,7.50
2018-05-03T00:20:16.660Z,8.70
2018-05-03T00:22:44.072Z,8.73
2018-05-03T00:25:11.453Z,9.50
2018-05-03T00:27:38.862Z,8.45
2018-05-03T00:30:06.242Z,8.10
2018-05-03T00:32:33.628Z,7.60
2018-05-03T00:35:01.049Z,9.00
2018-05-03T00:37:29.559Z,9.25
2018-05-03T00:39:56.930Z,8.40
2018-05-03T00:42:24.327Z,9.40
2018-05-03T00:44:51.725Z,9.27
2018-05-03T00:47:19.122Z,7.73
2018-05-03T00:49:46.512Z,8.83
2018-05-03T00:52:14.157Z,7.10
2018-05-03T00:54:48.264Z,8.00
2018-05-03T00:57:16.495Z,7.10
2018-05-03T00:59:43.889Z,8.33
2018-05-03T01:02:11.293Z,7.47
2018-05-03T01:04:38.667Z,8.90
2018-05-03T01:07:06.069Z,7.90
2018-05-03T01:09:33.458Z,8.43
2018-05-03T01:12:01.445Z,8.40
2018-05-03T01:14:28.812Z,8.53
2018-05-03T01:16:56.211Z,8.10
2018-05-03T01:19:24.022Z,8.80
2018-05-03T01:21:51.419Z,8.10
2018-05-03T01:24:19.187Z,9.00
2018-05-03T01:26:46.584Z,8.50
2018-05-03T01:29:13.962Z,8.23
2018-05-03T01:31:41.995Z,7.85
2018-05-03T01:34:09.388Z,9.27
2018-05-03T01:36:36.776Z,8.33
2018-05-03T01:39:04.182Z,8.47
2018-05-03T01:41:31.572Z,8.20
2018-05-03T01:43:58.965Z,8.20
2018-05-03T01:46:26.356Z,8.77
2018-05-03T01:48:53.758Z,9.33
2018-05-03T01:51:21.156Z,9.60
2018-05-03T01:53:48.544Z,8.50
2018-05-03T01:56:15.935Z,7.07
2018-05-03T01:58:43.323Z,8.57
2018-05-03T02:01:10.703Z,9.37
2018-05-03T02:03:38.102Z,8.33
2018-05-03T02:06:05.496Z,8.60
2018-05-03T02:08:32.875Z,8.40
2018-05-03T02:11:00.260Z,8.97
2018-05-03T02:13:27.655Z,8.98
2018-05-03T02:15:55.793Z,8.18
2018-05-03T02:18:23.169Z,8.43
2018-05-03T02:20:50.566Z,8.90
2018-05-03T02:23:17.944Z,9.35
2018-05-03T02:25:45.342Z,7.67
2018-05-03T02:28:13.093Z,8.43
2018-05-03T02:30:41.480Z,7.90
2018-05-03T02:33:08.875Z,8.23
2018-05-03T02:35:36.272Z,9.52
2018-05-03T02:38:03.677Z,8.17
2018-05-03T02:40:31.057Z,8.40
2018-05-03T02:42:58.447Z,9.80
2018-05-03T02:45:26.901Z,10.50
2018-05-03T02:47:54.283Z,10.23
2018-05-03T02:50:21.690Z,11.40
2018-05-03T02:52:49.072Z,9.77
2018-05-03T02:55:16.472Z,11.60
2018-05-03T02:58:01.288Z,11.95
2018-05-03T03:00:46.319Z,10.60
2018-05-03T03:03:31.247Z,11.40
2018-05-03T03:06:10.566Z,10.10
2018-05-03T03:09:06.395Z,11.40
2018-05-03T03:15:03.813Z,10.25
2018-05-03T03:17:48.544Z,12.03
2018-05-03T03:20:42.416Z,10.63
2018-05-03T03:23:27.285Z,10.47
2018-05-03T03:29:37.009Z,11.80
2018-05-03T03:32:16.234Z,10.55
2018-05-03T03:34:43.636Z,11.47
2018-05-03T03:37:32.687Z,10.67
2018-05-03T03:40:17.457Z,10.23
2018-05-03T03:45:49.968Z,10.10
2018-05-03T03:48:17.340Z,9.10
2018-05-03T03:50:44.739Z,8.93
2018-05-03T03:53:12.193Z,8.73
2018-05-03T03:55:39.565Z,7.67
2018-05-03T03:58:06.944Z,8.47
2018-05-03T04:00:34.355Z,9.30
2018-05-03T04:03:01.744Z,9.03
2018-05-03T04:05:29.828Z,8.70
2018-05-03T04:07:57.236Z,10.43
2018-05-03T04:10:24.621Z,9.50
2018-05-03T04:12:52.024Z,9.05
2018-05-03T04:15:19.415Z,9.57
2018-05-03T04:17:58.569Z,9.40
2018-05-03T04:20:40.420Z,9.67
2018-05-03T04:23:19.579Z,9.60
2018-05-03T04:25:58.690Z,11.03
2018-05-03T04:28:26.089Z,9.93
2018-05-03T04:30:53.488Z,8.40
2018-05-03T04:33:20.897Z,9.10
2018-05-03T04:35:48.288Z,9.37
2018-05-03T04:38:15.703Z,10.00
2018-05-03T04:40:43.100Z,10.88
2018-05-03T04:43:11.297Z,9.77
2018-05-03T04:45:38.696Z,9.27
2018-05-03T04:48:06.096Z,9.47
2018-05-03T04:50:33.511Z,10.50
2018-05-03T04:53:01.707Z,9.70
2018-05-03T04:55:29.096Z,9.60
2018-05-03T04:57:56.496Z,9.07
2018-05-03T05:00:23.886Z,9.50
2018-05-03T05:02:51.276Z,8.63
2018-05-03T05:05:18.671Z,8.33
2018-05-03T05:07:46.081Z,9.10
2018-05-03T05:10:13.480Z,8.40
2018-05-03T05:12:40.922Z,8.00
2018-05-03T05:15:08.313Z,8.20
2018-05-03T05:17:35.704Z,7.30
2018-05-03T05:20:03.110Z,7.77
2018-05-03T05:22:30.508Z,7.47
2018-05-03T05:24:57.909Z,8.13
2018-05-03T05:27:25.279Z,7.70
2018-05-03T05:29:52.688Z,8.93
2018-05-03T05:32:20.075Z,7.90
2018-05-03T05:34:47.467Z,7.40
2018-05-03T05:37:14.857Z,7.20
2018-05-03T05:39:42.244Z,7.00
2018-05-03T05:42:09.628Z,6.77
2018-05-03T05:44:37.029Z,7.20
2018-05-03T05:47:04.412Z,6.20
2018-05-03T05:49:31.820Z,7.67
2018-05-03T05:51:59.208Z,6.83
2018-05-03T05:54:26.598Z,8.27
2018-05-03T05:56:53.987Z,6.73
2018-05-03T05:59:21.395Z,11.80
2018-05-03T06:01:48.796Z,8.38
2018-05-03T06:04:16.254Z,7.70
2018-05-03T06:06:43.581Z,8.85
2018-05-03T06:09:10.983Z,7.20
2018-05-03T06:11:38.382Z,6.90
2018-05-03T06:14:05.776Z,6.80
2018-05-03T06:16:33.171Z,6.50
2018-05-03T06:19:00.581Z,7.30
2018-05-03T06:21:27.977Z,7.70
2018-05-03T06:23:55.388Z,7.90
2018-05-03T06:26:22.781Z,8.80
2018-05-03T06:28:50.192Z,6.93
2018-05-03T06:31:17.576Z,9.13
2018-05-03T06:33:44.968Z,8.73
2018-05-03T06:36:12.371Z,8.87
2018-05-03T06:38:39.766Z,8.60
2018-05-03T06:41:07.157Z,6.80
2018-05-03T06:43:34.690Z,7.40
2018-05-03T06:46:02.088Z,7.70
2018-05-03T06:48:30.455Z,8.30
2018-05-03T06:50:57.854Z,8.10
2018-05-03T06:53:25.232Z,7.60
2018-05-03T06:55:52.767Z,6.47
2018-05-03T06:58:20.166Z,7.93
2018-05-03T07:00:47.560Z,6.43
2018-05-03T07:03:14.956Z,8.37
2018-05-03T07:05:42.361Z,7.23
2018-05-03T07:08:09.736Z,7.40
2018-05-03T07:10:37.300Z,7.12
2018-05-03T07:13:04.695Z,7.17
2018-05-03T07:15:32.095Z,13.77
2018-05-03T07:17:59.479Z,7.57
2018-05-03T07:20:26.880Z,8.60
2018-05-03T07:22:54.262Z,9.27
2018-05-03T07:25:21.655Z,9.25
2018-05-03T07:27:49.043Z,8.13
2018-05-03T07:30:16.440Z,8.50
2018-05-03T07:32:43.835Z,7.17
2018-05-03T07:35:11.247Z,8.23
2018-05-03T07:37:38.633Z,7.33
2018-05-03T07:40:06.016Z,7.60
2018-05-03T07:42:33.416Z,6.60
2018-05-03T07:45:00.791Z,8.03
2018-05-03T07:47:28.192Z,8.03
2018-05-03T07:49:55.583Z,8.75
2018-05-03T07:52:22.987Z,8.33
2018-05-03T07:54:50.385Z,7.23
2018-05-03T07:57:17.784Z,9.53
2018-05-03T07:59:45.182Z,8.20
2018-05-03T08:02:13.116Z,9.43
2018-05-03T08:04:40.500Z,8.63
2018-05-03T08:07:07.901Z,9.50
2018-05-03T08:09:35.286Z,8.80
2018-05-03T08:12:02.702Z,9.52
2018-05-03T08:14:30.091Z,8.27
2018-05-03T08:16:57.497Z,7.63
2018-05-03T08:19:24.928Z,8.13
2018-05-03T08:21:52.259Z,8.63
2018-05-03T08:24:19.665Z,7.60
2018-05-03T08:26:47.055Z,9.33
2018-05-03T08:29:14.455Z,8.95
2018-05-03T08:31:41.937Z,7.60
2018-05-03T08:34:09.249Z,9.77
2018-05-03T08:36:36.654Z,9.27
2018-05-03T08:39:04.031Z,8.70
2018-05-03T08:41:31.417Z,8.47
2018-05-03T08:43:58.804Z,8.77
2018-05-03T08:46:26.213Z,9.68
2018-05-03T08:48:53.591Z,8.77
2018-05-03T08:51:20.975Z,7.90
2018-05-03T08:53:48.376Z,8.93
2018-05-03T08:56:15.756Z,9.90
2018-05-03T08:58:43.156Z,9.70
2018-05-03T09:01:10.545Z,8.47
2018-05-03T09:03:37.944Z,9.10
2018-05-03T09:06:05.343Z,8.63
2018-05-03T09:08:32.728Z,7.47
2018-05-03T09:11:00.132Z,8.10
2018-05-03T09:13:27.523Z,7.32
2018-05-03T09:15:54.900Z,8.67
2018-05-03T09:18:22.302Z,8.43
2018-05-03T09:20:49.684Z,7.80
2018-05-03T09:23:17.071Z,8.03
2018-05-03T09:25:44.463Z,8.60
2018-05-03T09:28:11.860Z,8.57
2018-05-03T09:30:39.251Z,9.10
2018-05-03T09:33:06.652Z,8.47
2018-05-03T09:35:34.037Z,7.50
2018-05-03T09:38:01.433Z,7.77
2018-05-03T09:40:28.820Z,8.13
2018-05-03T09:42:56.204Z,7.03
2018-05-03T09:45:23.620Z,7.90
2018-05-03T09:47:51.020Z,7.32
2018-05-03T09:50:18.417Z,8.23
2018-05-03T09:52:46.300Z,8.70
2018-05-03T09:55:14.521Z,8.23
2018-05-03T09:57:41.912Z,8.00
2018-05-03T10:00:09.299Z,7.93
2018-05-03T10:02:36.680Z,8.35
2018-05-03T10:05:04.079Z,8.33
2018-05-03T10:07:31.466Z,8.00
2018-05-03T10:09:58.849Z,8.50
2018-05-03T10:12:26.504Z,7.80
2018-05-03T10:14:53.883Z,8.57
2018-05-03T10:17:21.271Z,8.20
2018-05-03T10:19:49.648Z,7.90
2018-05-03T10:22:17.035Z,7.67
2018-05-03T10:24:44.432Z,8.00
2018-05-03T10:27:11.824Z,8.70
2018-05-03T10:29:39.224Z,7.30
2018-05-03T10:32:06.596Z,7.45
2018-05-03T10:34:34.000Z,6.93
2018-05-03T10:37:01.392Z,7.40
2018-05-03T10:39:28.791Z,7.40
2018-05-03T10:41:56.262Z,7.23
2018-05-03T10:44:23.563Z,7.47
2018-05-03T10:46:50.950Z,8.05
2018-05-03T10:49:19.213Z,8.43
2018-05-03T10:51:46.605Z,7.43
2018-05-03T10:54:14.010Z,7.00
2018-05-03T10:56:41.385Z,7.07
2018-05-03T10:59:08.800Z,8.23
2018-05-03T11:01:36.180Z,6.80
2018-05-03T11:04:03.562Z,7.90
2018-05-03T11:06:30.955Z,6.70
2018-05-03T11:08:58.341Z,6.37
2018-05-03T11:11:25.724Z,7.07
2018-05-03T11:13:53.109Z,7.40
2018-05-03T11:16:20.697Z,7.60
2018-05-03T11:18:48.074Z,7.37
2018-05-03T11:21:15.464Z,6.20
2018-05-03T11:23:42.853Z,6.47
2018-05-03T11:26:10.244Z,6.60
2018-05-03T11:28:37.631Z,7.30
2018-05-03T11:31:05.023Z,7.00
2018-05-03T11:33:32.411Z,7.07
2018-05-03T11:35:59.800Z,7.83
2018-05-03T11:38:27.193Z,6.97
2018-05-03T11:40:54.589Z,7.97
2018-05-03T11:43:21.965Z,6.93
2018-05-03T11:45:49.359Z,8.83
2018-05-03T11:48:16.735Z,7.70
2018-05-03T11:50:44.132Z,7.33
2018-05-03T11:53:11.517Z,7.87
2018-05-03T11:55:38.917Z,6.72
2018-05-03T11:58:06.308Z,7.20
2018-05-03T12:00:33.705Z,7.10
2018-05-03T12:03:01.101Z,6.80
2018-05-03T12:05:28.508Z,11.50
2018-05-03T12:07:55.901Z,7.10
2018-05-03T12:10:23.294Z,6.10
2018-05-03T12:12:51.647Z,7.53
2018-05-03T12:15:19.041Z,7.20
2018-05-03T12:17:46.423Z,6.67
2018-05-03T12:20:13.832Z,7.03
2018-05-03T12:22:41.219Z,6.93
2018-05-03T12:25:08.604Z,6.20
2018-05-03T12:27:36.003Z,6.32
2018-05-03T12:30:03.388Z,6.60
2018-05-03T12:32:30.788Z,6.50
2018-05-03T12:34:58.205Z,6.30
2018-05-03T12:37:25.563Z,6.90
2018-05-03T12:39:52.955Z,6.53
2018-05-03T12:42:20.340Z,6.77
2018-05-03T12:44:47.720Z,5.87
2018-05-03T12:47:15.116Z,5.63
2018-05-03T12:49:42.504Z,6.63
2018-05-03T12:52:09.892Z,7.22
2018-05-03T12:54:37.279Z,7.17
2018-05-03T12:57:04.672Z,7.63
2018-05-03T12:59:32.053Z,5.93
2018-05-03T13:01:59.459Z,7.53
2018-05-03T13:04:26.832Z,6.77
2018-05-03T13:06:54.229Z,7.23
2018-05-03T13:09:21.619Z,7.17
2018-05-03T13:11:49.005Z,7.00
2018-05-03T13:14:16.407Z,6.37
2018-05-03T13:16:43.795Z,6.80
2018-05-03T13:19:11.176Z,7.20
2018-05-03T13:21:38.583Z,6.45
2018-05-03T13:24:05.973Z,5.70
2018-05-03T13:26:33.443Z,7.87
2018-05-03T13:29:00.770Z,7.47
2018-05-03T13:31:28.151Z,6.62
2018-05-03T13:33:55.545Z,7.67
2018-05-03T13:36:22.949Z,9.27
2018-05-03T13:38:50.340Z,6.30
2018-05-03T13:41:17.796Z,8.40
2018-05-03T13:43:45.119Z,5.90
2018-05-03T13:46:12.600Z,5.07
2018-05-03T13:48:40.024Z,5.97
2018-05-03T13:51:07.411Z,5.82
2018-05-03T13:53:34.800Z,6.00
2018-05-03T13:56:02.180Z,6.33
2018-05-03T13:58:29.588Z,5.97
2018-05-03T14:00:56.973Z,5.75
2018-05-03T14:03:25.213Z,5.15
2018-05-03T14:05:52.598Z,5.80
2018-05-03T14:08:19.998Z,6.60
2018-05-03T14:10:47.381Z,5.55
2018-05-03T14:13:14.784Z,5.07
2018-05-03T14:15:42.176Z,5.30
2018-05-03T14:18:09.569Z,4.85
2018-05-03T14:20:36.964Z,6.17
2018-05-03T14:23:04.352Z,5.90
2018-05-03T14:25:31.749Z,6.17
2018-05-03T14:27:59.139Z,4.30
2018-05-03T14:30:26.523Z,4.20
2018-05-03T14:32:53.921Z,4.10
2018-05-03T14:35:21.308Z,4.90
2018-05-03T14:37:48.701Z,5.73
2018-05-03T14:40:16.086Z,5.00
2018-05-03T14:42:43.473Z,5.73
2018-05-03T14:45:10.861Z,4.50
2018-05-03T14:47:38.235Z,4.50
2018-05-03T14:50:05.656Z,4.60
2018-05-03T14:52:33.027Z,4.30
2018-05-03T14:55:00.417Z,4.70
2018-05-03T14:57:27.805Z,4.30
2018-05-03T14:59:55.197Z,3.90
2018-05-03T15:02:22.575Z,4.70
2018-05-03T15:04:49.981Z,4.80
2018-05-03T15:07:17.373Z,4.27
2018-05-03T15:09:44.765Z,5.17
2018-05-03T15:12:12.151Z,5.47
2018-05-03T15:14:39.543Z,5.20
2018-05-03T15:17:06.936Z,5.03
2018-05-03T15:19:34.342Z,4.40
2018-05-03T15:22:01.727Z,4.50
2018-05-03T15:24:29.121Z,4.23
2018-05-03T15:26:56.511Z,4.10
2018-05-03T15:29:23.900Z,4.47
2018-05-03T15:31:51.292Z,4.20
2018-05-03T15:34:18.679Z,4.40
2018-05-03T15:36:46.072Z,4.50
2018-05-03T15:39:13.490Z,4.40
2018-05-03T15:41:40.859Z,3.87
2018-05-03T15:44:08.264Z,3.30
2018-05-03T15:46:35.664Z,3.97
2018-05-03T15:49:03.040Z,3.30
2018-05-03T15:51:30.431Z,3.30
2018-05-03T15:53:57.818Z,3.57
2018-05-03T15:56:25.204Z,3.70
2018-05-03T15:58:52.604Z,3.30
2018-05-03T16:01:19.995Z,3.90
2018-05-03T16:03:47.373Z,3.73
2018-05-03T16:06:14.764Z,3.27
2018-05-03T16:08:42.157Z,3.73
2018-05-03T16:11:09.540Z,2.70
2018-05-03T16:13:36.936Z,2.93
2018-05-03T16:16:04.462Z,3.40
2018-05-03T16:18:31.848Z,2.67
2018-05-03T16:21:01.068Z,3.27
2018-05-03T16:23:28.440Z,3.30
2018-05-03T16:25:55.830Z,2.83
2018-05-03T16:28:23.212Z,3.10
2018-05-03T16:30:50.616Z,3.73
2018-05-03T16:33:17.993Z,3.13
2018-05-03T16:35:45.391Z,2.97
2018-05-03T16:38:12.838Z,2.97
2018-05-03T16:40:40.230Z,3.58
2018-05-03T16:43:07.607Z,3.80
2018-05-03T16:45:35.008Z,3.30
2018-05-03T16:48:02.404Z,4.70
2018-05-03T16:50:30.015Z,3.60
2018-05-03T16:52:57.410Z,3.23
2018-05-03T16:55:24.805Z,3.47
2018-05-03T16:57:52.202Z,3.03
2018-05-03T17:00:19.603Z,3.67
2018-05-03T17:02:46.983Z,3.05
2018-05-03T17:05:14.377Z,3.20
2018-05-03T17:07:41.756Z,4.30
2018-05-03T17:10:09.143Z,3.70
2018-05-03T17:12:37.421Z,3.70
2018-05-03T17:15:04.812Z,3.67
2018-05-03T17:17:32.198Z,3.73
2018-05-03T17:19:59.584Z,3.60
2018-05-03T17:22:26.976Z,4.10
2018-05-03T17:24:54.369Z,3.50
2018-05-03T17:27:21.765Z,3.37
2018-05-03T17:29:49.928Z,4.20
2018-05-03T17:32:17.316Z,3.20
2018-05-03T17:34:45.410Z,3.60
2018-05-03T17:37:13.694Z,3.05
2018-05-03T17:39:41.084Z,3.70
2018-05-03T17:42:08.466Z,3.73
2018-05-03T17:44:35.849Z,3.27
2018-05-03T17:47:03.883Z,3.62
2018-05-03T17:49:31.279Z,4.55
2018-05-03T17:51:58.682Z,3.80
2018-05-03T17:54:26.053Z,3.90
2018-05-03T17:56:53.517Z,3.78
2018-05-03T17:59:21.361Z,3.87
2018-05-03T18:01:48.803Z,3.73
2018-05-03T18:04:16.184Z,3.03
2018-05-03T18:06:43.565Z,3.58
2018-05-03T18:09:11.016Z,4.00
2018-05-03T18:11:38.411Z,3.50
2018-05-03T18:14:05.810Z,3.53
2018-05-03T18:16:33.189Z,3.60
2018-05-03T18:19:00.579Z,4.05
2018-05-03T18:21:28.053Z,3.40
2018-05-03T18:23:55.383Z,4.23
2018-05-03T18:26:22.788Z,4.17
2018-05-03T18:28:50.287Z,3.97
2018-05-03T18:31:17.884Z,3.72
2018-05-03T18:33:45.474Z,5.30
2018-05-03T18:36:13.097Z,4.10
2018-05-03T18:38:40.516Z,4.63
2018-05-03T18:41:07.996Z,4.73
2018-05-03T18:43:35.727Z,4.15
2018-05-03T18:46:03.141Z,4.70
2018-05-03T18:48:31.327Z,4.93
2018-05-03T18:50:58.712Z,4.57
2018-05-03T18:53:26.103Z,5.00
2018-05-03T18:55:53.494Z,4.80
2018-05-03T18:58:20.942Z,4.53
2018-05-03T19:00:48.272Z,5.00
2018-05-03T19:03:15.678Z,4.33
2018-05-03T19:05:43.058Z,5.43
2018-05-03T19:08:10.444Z,5.43
2018-05-03T19:10:37.846Z,4.43
2018-05-03T19:13:05.644Z,4.17
2018-05-03T19:15:32.976Z,3.90
2018-05-03T19:18:00.394Z,5.17
2018-05-03T19:20:28.056Z,4.90
2018-05-03T19:22:55.696Z,6.45
2018-05-03T19:25:23.140Z,5.10
2018-05-03T19:27:51.013Z,4.62
2018-05-03T19:30:18.436Z,4.40
2018-05-03T19:32:45.832Z,4.90
2018-05-03T19:35:13.311Z,4.93
2018-05-03T19:37:40.812Z,4.20
2018-05-03T19:40:08.317Z,5.20
2018-05-03T19:42:35.730Z,3.63
2018-05-03T19:45:03.263Z,3.43
2018-05-03T19:47:30.648Z,4.13
2018-05-03T19:49:58.095Z,3.90
2018-05-03T19:52:25.652Z,4.60
2018-05-03T19:54:53.041Z,3.67
2018-05-03T19:57:20.452Z,3.70
2018-05-03T19:59:47.843Z,3.25
2018-05-03T20:02:15.280Z,3.53
2018-05-03T20:04:42.737Z,3.90
2018-05-03T20:07:10.252Z,3.78
2018-05-03T20:09:37.641Z,3.27
2018-05-03T20:12:05.056Z,3.70
2018-05-03T20:14:32.642Z,4.05
2018-05-03T20:17:00.048Z,2.93
2018-05-03T20:19:27.461Z,3.10
2018-05-03T20:21:55.977Z,3.22
2018-05-03T20:24:23.396Z,4.10
2018-05-03T20:26:50.836Z,3.23
2018-05-03T20:29:18.209Z,3.37
2018-05-03T20:31:45.600Z,3.50
2018-05-03T20:34:13.331Z,2.90
2018-05-03T20:36:40.756Z,3.27
2018-05-03T20:39:08.210Z,3.40
2018-05-03T20:41:35.651Z,3.47
2018-05-03T20:44:03.031Z,3.10
2018-05-03T20:46:30.436Z,3.43
2018-05-03T20:48:57.809Z,4.80
2018-05-03T20:51:25.205Z,3.23
2018-05-03T20:53:52.601Z,3.00
2018-05-03T20:56:19.996Z,3.63
2018-05-03T20:58:47.392Z,3.83
2018-05-03T21:01:14.772Z,3.10
2018-05-03T21:03:42.143Z,3.90
2018-05-03T21:06:09.539Z,3.27
2018-05-03T21:08:36.925Z,3.75
2018-05-03T21:11:04.325Z,3.63
2018-05-03T21:13:31.700Z,3.80
2018-05-03T21:15:59.098Z,3.73
2018-05-03T21:18:26.488Z,2.53
2018-05-03T21:20:53.889Z,3.30
2018-05-03T21:23:21.276Z,2.80
2018-05-03T21:25:48.668Z,3.27
2018-05-03T21:28:16.062Z,3.30
2018-05-03T21:30:43.455Z,3.67
2018-05-03T21:33:10.841Z,3.27
2018-05-03T21:35:38.249Z,3.13
2018-05-03T21:38:05.632Z,3.30
2018-05-03T21:40:33.034Z,3.28
2018-05-03T21:43:00.439Z,3.10
2018-05-03T21:45:27.834Z,3.43
2018-05-03T21:47:55.219Z,3.10
2018-05-03T21:50:22.597Z,3.53
2018-05-03T21:52:49.992Z,3.90
2018-05-03T21:55:17.381Z,3.60
2018-05-03T21:57:44.790Z,2.73
2018-05-03T22:02:38.987Z,3.90
2018-05-03T22:05:06.360Z,3.17
2018-05-03T22:07:33.772Z,3.40
2018-05-03T22:10:01.149Z,3.90
2018-05-03T22:12:28.554Z,3.80
2018-05-03T22:14:55.933Z,4.20
2018-05-03T22:17:23.327Z,4.20
2018-05-03T22:19:50.726Z,4.23
2018-05-03T22:22:18.107Z,5.27
2018-05-03T22:24:45.489Z,4.60
2018-05-03T22:27:12.887Z,4.87
2018-05-03T22:29:40.360Z,4.20
2018-05-03T22:32:07.757Z,4.20
2018-05-03T22:34:35.137Z,4.50
2018-05-03T22:37:02.552Z,4.43
2018-05-03T22:39:29.949Z,4.50
2018-05-03T22:41:57.337Z,4.10
2018-05-03T22:44:24.734Z,4.35
2018-05-03T22:46:52.126Z,4.73
2018-05-03T22:49:19.511Z,4.17
2018-05-03T22:51:46.892Z,4.40
2018-05-03T22:54:14.287Z,4.33
2018-05-03T22:56:41.675Z,4.00
2018-05-03T22:59:09.080Z,4.93
2018-05-03T23:01:36.469Z,3.93
2018-05-03T23:04:03.858Z,5.23
2018-05-03T23:06:31.248Z,5.17
2018-05-03T23:08:58.636Z,4.70
2018-05-03T23:11:26.068Z,4.60
2018-05-03T23:13:53.439Z,5.57
2018-05-03T23:16:20.821Z,5.17
2018-05-03T23:18:48.855Z,5.35
2018-05-03T23:21:16.248Z,5.80
2018-05-03T23:23:43.652Z,5.50
2018-05-03T23:26:11.041Z,5.35
2018-05-03T23:28:38.447Z,5.07
2018-05-03T23:31:05.835Z,6.53
2018-05-03T23:33:33.229Z,5.23
2018-05-03T23:36:00.615Z,5.47
2018-05-03T23:38:28.015Z,4.97
2018-05-03T23:40:56.035Z,5.50
2018-05-03T23:43:23.440Z,4.85
2018-05-03T23:45:50.824Z,4.50
2018-05-03T23:48:18.220Z,5.10
2018-05-03T23:50:45.610Z,5.20
2018-05-03T23:53:13.224Z,5.83
2018-05-03T23:55:40.608Z,5.40
2018-05-03T23:58:08.003Z,5.30
